< Typhoon 201206 2012 Season Typhoon 201208 >
Typhoon 201207 (KHANUN)
General InformationTrack Information on Google MapsDetailed Wind InformationAccess Analytics MapList of All Images || NewsDisaster Info.WeblogTrackbackTyphoon FrontTwiphoonTyphoon Now!Typhoon ImaginationResourceGoogle EarthGE AnimationAtom FeedGeoJSON
Detalied Best Track (Time Zone = UTC)
Year Month Day Hour Lat. Long. Pressure (hPa) Wind (kt) Class Image Chart
2012 7 14 18 19.3 143.5 1006 0 2 Image Chart
2012 7 15 00 19.1 143.1 1008 0 2 Image Chart
2012 7 15 06 19.8 143.0 1006 0 2 Image Chart
2012 7 15 12 20.4 140.7 1006 0 2 Image Chart
2012 7 15 18 21.7 140.0 1006 0 2 Image Chart
2012 7 16 00 22.6 138.0 1004 0 2 Image Chart
2012 7 16 06 24.1 136.2 1002 35 3 Image Chart
2012 7 16 12 24.8 134.6 1002 35 3 Image Chart
2012 7 16 15 25.3 133.8 1000 35 3 Image Chart
2012 7 16 18 25.6 132.8 998 40 3 Image Chart
2012 7 16 21 25.7 132.1 996 40 3 Image Chart
2012 7 17 00 26.1 131.1 994 40 3 Image Chart
2012 7 17 03 26.3 130.4 994 45 3 Image Chart
2012 7 17 06 26.8 129.6 992 45 3 Image Chart
2012 7 17 09 27.3 129.1 990 45 3 Image Chart
2012 7 17 12 27.8 128.3 990 45 3 Image Chart
2012 7 17 15 28.4 127.8 990 45 3 Image Chart
2012 7 17 18 28.7 127.5 985 50 4 Image Chart
2012 7 18 00 29.8 126.7 985 50 4 Image Chart
2012 7 18 06 31.9 126.2 990 45 3 Image Chart
2012 7 18 12 33.7 126.3 992 40 3 Image Chart
2012 7 18 18 35.8 126.5 994 35 3 Image Chart
2012 7 19 00 38.0 128.0 998 0 2 Image Chart
2012 7 19 06 39.5 127.8 1000 0 2 Image Chart
2012 7 19 12 39.8 128.1 1000 0 2 Image Chart
2012 7 19 18 40.3 128.4 1004 0 6 Image Chart
2012 7 20 00 40.4 129.3 1006 0 6 Image Chart
Japan Meteorological Agency Best Track Data | Correction Date : 2012-08-21
< Typhoon 201206 2012 Season Typhoon 201208 >

Help